createdAt,value
2023-04-06T00:01:48.248Z,101318.69
2023-04-06T00:03:50.286Z,101318.88
2023-04-06T00:05:52.503Z,101320.59
2023-04-06T00:07:55.334Z,101317.38
2023-04-06T00:09:57.169Z,101311.22
2023-04-06T00:11:59.008Z,101316.44
2023-04-06T00:14:01.390Z,101305.75
2023-04-06T00:16:03.609Z,101302.56
2023-04-06T00:18:05.588Z,101306.00
2023-04-06T00:20:08.269Z,101305.91
2023-04-06T00:22:10.126Z,101301.75
2023-04-06T00:24:11.931Z,101297.38
2023-04-06T00:26:13.755Z,101292.31
2023-04-06T00:28:15.747Z,101297.59
2023-04-06T00:30:17.495Z,101293.06
2023-04-06T00:32:19.286Z,101285.34
2023-04-06T00:34:21.578Z,101282.00
2023-04-06T00:36:23.479Z,101283.03
2023-04-06T00:38:25.303Z,101282.84
2023-04-06T00:40:29.471Z,101277.66
2023-04-06T00:42:31.374Z,101275.09
2023-04-06T00:44:33.144Z,101265.75
2023-04-06T00:46:35.643Z,101264.03
2023-04-06T00:48:37.494Z,101262.91
2023-04-06T00:50:39.381Z,101262.78
2023-04-06T00:52:41.272Z,101252.59
2023-04-06T00:54:44.069Z,101252.72
2023-04-06T00:56:46.222Z,101246.88
2023-04-06T00:58:48.237Z,101249.63
2023-04-06T01:00:50.218Z,101248.72
2023-04-06T01:02:52.090Z,101238.63
2023-04-06T01:04:55.345Z,101242.44
2023-04-06T01:06:57.247Z,101244.44
2023-04-06T01:08:59.153Z,101238.75
2023-04-06T01:11:02.520Z,101243.31
2023-04-06T01:13:04.426Z,101232.13
2023-04-06T01:15:07.582Z,101223.81
2023-04-06T01:17:09.416Z,101226.28
2023-04-06T01:19:12.746Z,101225.41
2023-04-06T01:21:16.985Z,101209.00
2023-04-06T01:23:18.904Z,101216.09
2023-04-06T01:25:20.886Z,101208.06
2023-04-06T01:27:22.704Z,101210.09
2023-04-06T01:29:24.471Z,101205.69
2023-04-06T01:31:27.372Z,101204.56
2023-04-06T01:33:29.151Z,101209.03
2023-04-06T01:35:31.515Z,101200.59
2023-04-06T01:37:33.710Z,101205.84
2023-04-06T01:39:35.486Z,101189.03
2023-04-06T01:41:37.562Z,101188.19
2023-04-06T01:43:39.511Z,101185.78
2023-04-06T01:45:41.550Z,101188.38
2023-04-06T01:47:43.335Z,101183.09
2023-04-06T01:49:45.099Z,101173.13
2023-04-06T01:51:46.934Z,101177.50
2023-04-06T01:53:50.376Z,101177.28
2023-04-06T01:55:52.145Z,101172.06
2023-04-06T01:57:53.933Z,101170.28
2023-04-06T01:59:55.684Z,101174.06
2023-04-06T02:01:57.457Z,101165.84
2023-04-06T02:03:59.344Z,101168.53
2023-04-06T02:06:04.966Z,101157.28
2023-04-06T02:08:09.233Z,101150.41
2023-04-06T02:10:14.200Z,101151.28
2023-04-06T02:12:16.248Z,101153.88
2023-04-06T02:14:18.153Z,101156.47
2023-04-06T02:16:19.994Z,101148.44
2023-04-06T02:18:22.293Z,101149.47
2023-04-06T02:20:24.098Z,101138.47
2023-04-06T02:22:25.842Z,101145.19
2023-04-06T02:24:27.632Z,101146.81
2023-04-06T02:26:31.867Z,101142.66
2023-04-06T02:28:33.673Z,101135.50
2023-04-06T02:30:35.697Z,101143.88
2023-04-06T02:32:37.486Z,101130.63
2023-04-06T02:34:39.249Z,101132.41
2023-04-06T02:36:41.241Z,101135.84
2023-04-06T02:38:43.177Z,101130.72
2023-04-06T02:40:44.917Z,101121.34
2023-04-06T02:42:46.683Z,101125.53
2023-04-06T02:44:48.463Z,101119.19
2023-04-06T02:46:50.288Z,101109.53
2023-04-06T02:48:52.064Z,101118.06
2023-04-06T02:50:53.997Z,101109.38
2023-04-06T02:52:55.730Z,101113.63
2023-04-06T02:54:57.528Z,101108.75
2023-04-06T02:56:59.340Z,101106.78
2023-04-06T02:59:01.145Z,101097.59
2023-04-06T03:01:02.966Z,101107.91
2023-04-06T03:03:04.823Z,101100.09
2023-04-06T03:05:06.962Z,101088.78
2023-04-06T03:07:11.938Z,101092.97
2023-04-06T03:09:15.257Z,101088.66
2023-04-06T03:11:17.069Z,101082.00
2023-04-06T03:13:18.888Z,101087.47
2023-04-06T03:15:20.908Z,101088.25
2023-04-06T03:17:22.786Z,101087.56
2023-04-06T03:19:24.565Z,101074.78
2023-04-06T03:21:26.391Z,101079.00
2023-04-06T03:23:28.128Z,101083.81
2023-04-06T03:25:31.237Z,101081.56
2023-04-06T03:27:33.774Z,101074.41
2023-04-06T03:29:35.607Z,101081.59
2023-04-06T03:31:37.439Z,101075.47
2023-04-06T03:33:39.204Z,101068.72
2023-04-06T03:35:41.155Z,101073.88
2023-04-06T03:37:45.079Z,101069.53
2023-04-06T03:39:46.900Z,101068.22
2023-04-06T03:41:48.852Z,101058.69
2023-04-06T03:43:51.014Z,101054.66
2023-04-06T03:45:55.025Z,101065.91
2023-04-06T03:47:57.288Z,101051.25
2023-04-06T03:49:59.093Z,101052.31
2023-04-06T03:52:02.253Z,101046.38
2023-04-06T03:54:04.176Z,101040.34
2023-04-06T03:56:06.522Z,101036.97
2023-04-06T03:58:08.320Z,101040.28
2023-04-06T04:00:11.102Z,101044.66
2023-04-06T04:02:12.982Z,101042.19
2023-04-06T04:04:14.817Z,101045.56
2023-04-06T04:06:16.576Z,101039.31
2023-04-06T04:08:18.354Z,101040.31
2023-04-06T04:10:20.096Z,101038.56
2023-04-06T04:12:21.956Z,101046.66
2023-04-06T04:14:23.726Z,101038.16
2023-04-06T04:16:25.917Z,101035.72
2023-04-06T04:18:27.725Z,101036.53
2023-04-06T04:20:29.666Z,101029.00
2023-04-06T04:22:31.495Z,101027.38
2023-04-06T04:24:33.815Z,101031.50
2023-04-06T04:26:35.560Z,101030.50
2023-04-06T04:28:37.330Z,101029.53
2023-04-06T04:30:39.204Z,101025.50
2023-04-06T04:32:41.477Z,101028.13
2023-04-06T04:34:43.257Z,101022.84
2023-04-06T04:36:45.189Z,101025.50
2023-04-06T04:38:46.991Z,101026.63
2023-04-06T04:40:48.720Z,101022.41
2023-04-06T04:42:52.048Z,101018.06
2023-04-06T04:44:53.815Z,101029.03
2023-04-06T04:46:58.094Z,101022.25
2023-04-06T04:48:59.875Z,101027.25
2023-04-06T04:51:01.930Z,101020.47
2023-04-06T04:53:06.534Z,101025.63
2023-04-06T04:55:08.681Z,101028.44
2023-04-06T04:57:10.457Z,101024.16
2023-04-06T04:59:12.314Z,101020.44
2023-04-06T05:01:14.207Z,101020.53
2023-04-06T05:03:25.283Z,101024.75
2023-04-06T05:05:27.241Z,101019.78
2023-04-06T05:07:29.042Z,101020.63
2023-04-06T05:09:32.306Z,101018.09
2023-04-06T05:11:34.341Z,101019.56
2023-04-06T05:13:36.507Z,101014.13
2023-04-06T05:15:39.513Z,101018.63
2023-04-06T05:17:41.596Z,101011.94
2023-04-06T05:19:43.453Z,101013.56
2023-04-06T05:21:45.495Z,101013.59
2023-04-06T05:23:47.350Z,101011.72
2023-04-06T05:25:49.238Z,101009.91
2023-04-06T05:27:51.527Z,101003.88
2023-04-06T05:29:54.953Z,101006.47
2023-04-06T05:31:58.001Z,101002.13
2023-04-06T05:34:00.666Z,101003.19
2023-04-06T05:36:02.762Z,100995.47
2023-04-06T05:38:04.760Z,100994.53
2023-04-06T05:40:07.438Z,100993.78
2023-04-06T05:42:09.363Z,101002.59
2023-04-06T05:44:11.329Z,100998.25
2023-04-06T05:46:13.206Z,101011.09
2023-04-06T05:48:14.965Z,101002.66
2023-04-06T05:50:17.068Z,101000.91
2023-04-06T05:52:18.838Z,100994.19
2023-04-06T05:54:21.188Z,100996.88
2023-04-06T05:56:23.108Z,100994.91
2023-04-06T05:58:25.193Z,100999.88
2023-04-06T06:00:27.480Z,100999.00
2023-04-06T06:02:32.129Z,100995.59
2023-04-06T06:04:33.981Z,100993.16
2023-04-06T06:06:36.136Z,100989.53
2023-04-06T06:08:37.971Z,100985.44
2023-04-06T06:10:41.348Z,100992.94
2023-04-06T06:12:43.137Z,100991.38
2023-04-06T06:14:45.030Z,100991.47
2023-04-06T06:16:49.954Z,101000.25
2023-04-06T06:18:51.887Z,100998.47
2023-04-06T06:20:53.761Z,101011.03
2023-04-06T06:22:55.676Z,100994.09
2023-04-06T06:24:57.554Z,101007.66
2023-04-06T06:26:59.760Z,101007.69
2023-04-06T06:29:01.539Z,101006.13
2023-04-06T06:31:03.540Z,101007.13
2023-04-06T06:33:05.434Z,101009.72
2023-04-06T06:35:07.817Z,101005.66
2023-04-06T06:37:09.783Z,101007.44
2023-04-06T06:39:11.834Z,101002.34
2023-04-06T06:41:14.287Z,101000.56
2023-04-06T06:43:16.204Z,101000.75
2023-04-06T06:45:18.189Z,100997.28
2023-04-06T06:47:20.135Z,100995.41
2023-04-06T06:49:22.009Z,100991.91
2023-04-06T06:51:23.857Z,100997.97
2023-04-06T06:53:25.805Z,100996.31
2023-04-06T06:55:27.886Z,100988.56
2023-04-06T06:57:29.745Z,100992.84
2023-04-06T06:59:31.606Z,100984.41
2023-04-06T07:01:35.656Z,100979.28
2023-04-06T07:03:37.593Z,100980.16
2023-04-06T07:05:41.430Z,100973.47
2023-04-06T07:07:43.568Z,100999.09
2023-04-06T07:09:45.567Z,100995.84
2023-04-06T07:11:47.658Z,100998.69
2023-04-06T07:13:49.557Z,100996.97
2023-04-06T07:15:51.813Z,101002.94
2023-04-06T07:17:55.944Z,101002.13
2023-04-06T07:19:57.878Z,101001.38
2023-04-06T07:22:00.420Z,100996.22
2023-04-06T07:24:02.988Z,100992.72
2023-04-06T07:26:04.941Z,100995.63
2023-04-06T07:28:06.839Z,101000.50
2023-04-06T07:30:09.405Z,101004.66
2023-04-06T07:32:11.653Z,100998.84
2023-04-06T07:34:13.542Z,101007.22
2023-04-06T07:36:15.756Z,100999.56
2023-04-06T07:38:17.711Z,101006.41
2023-04-06T07:40:20.742Z,101006.59
2023-04-06T07:42:22.573Z,101005.91
2023-04-06T07:44:24.634Z,101004.91
2023-04-06T07:46:26.614Z,101012.75
2023-04-06T07:48:28.549Z,101009.91
2023-04-06T07:50:30.711Z,101012.41
2023-04-06T07:52:34.173Z,101013.47
2023-04-06T07:54:37.098Z,101016.97
2023-04-06T07:56:38.948Z,101019.66
2023-04-06T07:58:40.874Z,101038.59
2023-04-06T08:00:42.774Z,101025.59
2023-04-06T08:02:44.784Z,101021.25
2023-04-06T08:04:49.212Z,101019.66
2023-04-06T08:06:51.315Z,101018.84
2023-04-06T08:08:53.150Z,101023.31
2023-04-06T08:10:55.004Z,101022.50
2023-04-06T08:12:58.054Z,101024.81
2023-04-06T08:15:00.873Z,101026.69
2023-04-06T08:17:04.618Z,101026.84
2023-04-06T08:19:10.632Z,101032.88
2023-04-06T08:21:15.973Z,101025.09
2023-04-06T08:23:17.935Z,101035.38
2023-04-06T08:25:19.830Z,101035.47
2023-04-06T08:27:21.818Z,101039.72
2023-04-06T08:29:23.630Z,101032.88
2023-04-06T08:31:26.140Z,101033.53
2023-04-06T08:33:28.566Z,101017.78
2023-04-06T08:35:30.787Z,101021.59
2023-04-06T08:37:32.723Z,101013.78
2023-04-06T08:39:35.004Z,101018.91
2023-04-06T08:41:36.949Z,101023.38
2023-04-06T08:43:49.767Z,101020.41
2023-04-06T08:45:52.020Z,101023.19
2023-04-06T08:47:57.978Z,101021.66
2023-04-06T08:50:04.107Z,101027.88
2023-04-06T08:52:10.458Z,101011.44
2023-04-06T08:54:12.380Z,101021.94
2023-04-06T08:56:15.604Z,101015.81
2023-04-06T08:58:31.191Z,101020.94
2023-04-06T09:00:40.929Z,101022.72
2023-04-06T09:02:46.720Z,101026.97
2023-04-06T09:04:51.109Z,101027.03
2023-04-06T09:06:53.630Z,101033.03
2023-04-06T09:08:56.282Z,101017.53
2023-04-06T09:11:02.333Z,101031.53
2023-04-06T09:13:06.587Z,101042.22
2023-04-06T09:15:23.607Z,101035.59
2023-04-06T09:17:28.914Z,101033.22
2023-04-06T09:19:31.534Z,101028.97
2023-04-06T09:21:34.416Z,101034.13
2023-04-06T09:23:36.454Z,101024.97
2023-04-06T09:25:38.670Z,101033.22
2023-04-06T09:27:41.064Z,101034.28
2023-04-06T09:29:44.871Z,101035.41
2023-04-06T09:31:47.026Z,101037.75
2023-04-06T09:33:49.627Z,101034.28
2023-04-06T09:35:54.959Z,101037.09
2023-04-06T09:38:12.672Z,101043.84
2023-04-06T09:40:20.357Z,101033.53
2023-04-06T09:42:27.426Z,101039.78
2023-04-06T09:44:29.333Z,101031.38
2023-04-06T09:46:46.367Z,101039.94
2023-04-06T09:48:54.086Z,101029.69
2023-04-06T09:51:06.632Z,101028.91
2023-04-06T09:53:09.220Z,101032.78
2023-04-06T09:55:11.567Z,101026.22
2023-04-06T09:57:19.707Z,101032.38
2023-04-06T09:59:31.902Z,101032.53
2023-04-06T10:01:35.208Z,101036.72
2023-04-06T10:03:51.109Z,101031.78
2023-04-06T10:05:59.789Z,101039.63
2023-04-06T10:08:10.257Z,101039.53
2023-04-06T10:10:14.400Z,101034.56
2023-04-06T10:12:17.077Z,101047.59
2023-04-06T10:14:19.567Z,101039.88
2023-04-06T10:16:22.619Z,101040.84
2023-04-06T10:18:24.856Z,101049.69
2023-04-06T10:20:48.864Z,101049.88
2023-04-06T10:23:06.893Z,101043.09
2023-04-06T10:25:10.562Z,101038.91
2023-04-06T10:27:12.485Z,101032.91
2023-04-06T10:29:14.387Z,101040.00
2023-04-06T10:31:17.321Z,101044.31
2023-04-06T10:33:21.730Z,101041.00
2023-04-06T10:35:25.163Z,101041.03
2023-04-06T10:37:27.310Z,101055.81
2023-04-06T10:39:29.351Z,101044.47
2023-04-06T10:41:39.656Z,101041.03
2023-04-06T10:43:42.930Z,101048.84
2023-04-06T10:45:45.526Z,101051.34
2023-04-06T10:47:47.852Z,101047.94
2023-04-06T10:49:50.041Z,101054.63
2023-04-06T10:51:56.089Z,101048.69
2023-04-06T10:53:59.384Z,101060.88
2023-04-06T10:56:02.132Z,101059.16
2023-04-06T10:58:11.154Z,101062.81
2023-04-06T11:00:13.959Z,101062.78
2023-04-06T11:02:23.826Z,101066.06
2023-04-06T11:04:26.680Z,101062.88
2023-04-06T11:06:31.773Z,101068.66
2023-04-06T11:08:34.624Z,101060.13
2023-04-06T11:10:37.482Z,101058.56
2023-04-06T11:12:39.549Z,101062.13
2023-04-06T11:14:43.430Z,101062.91
2023-04-06T11:16:51.169Z,101063.94
2023-04-06T11:19:03.434Z,101068.03
2023-04-06T11:21:06.752Z,101064.00
2023-04-06T11:23:09.474Z,101070.94
2023-04-06T11:25:11.811Z,101066.59
2023-04-06T11:27:16.166Z,101067.47
2023-04-06T11:29:21.321Z,101076.13
2023-04-06T11:31:29.780Z,101073.50
2023-04-06T11:33:37.632Z,101069.16
2023-04-06T11:35:39.780Z,101066.59
2023-04-06T11:37:47.301Z,101078.66
2023-04-06T11:39:52.547Z,101077.72
2023-04-06T11:42:05.568Z,101075.94
2023-04-06T11:44:09.151Z,101081.16
2023-04-06T11:46:12.028Z,101079.44
2023-04-06T11:48:26.445Z,101084.47
2023-04-06T11:50:36.233Z,101088.03
2023-04-06T11:52:40.004Z,101078.53
2023-04-06T11:54:42.504Z,101086.16
2023-04-06T11:56:48.038Z,101084.63
2023-04-06T11:58:50.257Z,101081.16
2023-04-06T12:00:52.333Z,101083.88
2023-04-06T12:02:54.261Z,101083.91
2023-04-06T12:04:56.405Z,101085.75
2023-04-06T12:07:02.989Z,101089.28
2023-04-06T12:09:06.167Z,101086.81
2023-04-06T12:11:09.450Z,101087.78
2023-04-06T12:13:11.452Z,101084.22
2023-04-06T12:15:13.335Z,101087.06
2023-04-06T12:17:15.802Z,101076.75
2023-04-06T12:19:18.212Z,101085.66
2023-04-06T12:21:20.129Z,101080.66
2023-04-06T12:23:22.094Z,101079.00
2023-04-06T12:25:24.069Z,101079.13
2023-04-06T12:27:26.173Z,101087.84
2023-04-06T12:29:28.187Z,101084.47
2023-04-06T12:31:31.034Z,101077.59
2023-04-06T12:33:33.760Z,101086.19
2023-04-06T12:35:36.334Z,101081.09
2023-04-06T12:37:38.447Z,101085.41
2023-04-06T12:39:40.735Z,101079.38
2023-04-06T12:41:42.647Z,101081.19
2023-04-06T12:43:46.234Z,101088.16
2023-04-06T12:45:48.267Z,101088.28
2023-04-06T12:47:50.583Z,101078.75
2023-04-06T12:49:52.677Z,101077.09
2023-04-06T12:51:54.736Z,101072.81
2023-04-06T12:53:56.802Z,101074.66
2023-04-06T12:56:00.195Z,101074.72
2023-04-06T12:58:21.166Z,101080.81
2023-04-06T13:00:23.761Z,101062.72
2023-04-06T13:02:33.059Z,101061.91
2023-04-06T13:04:34.934Z,101054.09
2023-04-06T13:06:37.029Z,101066.25
2023-04-06T13:08:40.374Z,101068.84
2023-04-06T13:10:50.598Z,101066.22
2023-04-06T13:12:55.619Z,101073.16
2023-04-06T13:14:58.288Z,101072.25
2023-04-06T13:17:00.906Z,101062.69
2023-04-06T13:19:03.799Z,101060.13
2023-04-06T13:21:07.403Z,101067.03
2023-04-06T13:23:09.688Z,101064.47
2023-04-06T13:25:11.784Z,101067.94
2023-04-06T13:27:13.938Z,101065.31
2023-04-06T13:29:16.171Z,101066.13
2023-04-06T13:31:20.529Z,101054.81
2023-04-06T13:33:23.946Z,101059.13
2023-04-06T13:35:26.199Z,101055.63
2023-04-06T13:37:28.214Z,101057.38
2023-04-06T13:39:31.023Z,101060.03
2023-04-06T13:41:32.965Z,101069.56
2023-04-06T13:43:34.941Z,101073.09
2023-04-06T13:45:38.894Z,101076.63
2023-04-06T13:47:41.055Z,101073.13
2023-04-06T13:49:43.215Z,101084.41
2023-04-06T13:51:45.295Z,101084.41
2023-04-06T13:53:47.479Z,101088.75
2023-04-06T13:56:00.238Z,101092.25
2023-04-06T13:58:04.794Z,101095.66
2023-04-06T14:00:08.356Z,101092.97
2023-04-06T14:02:12.326Z,101090.41
2023-04-06T14:04:24.222Z,101094.66
2023-04-06T14:06:31.742Z,101094.63
2023-04-06T14:08:44.673Z,101097.19
2023-04-06T14:10:57.555Z,101098.03
2023-04-06T14:12:59.528Z,101098.00
2023-04-06T14:15:04.395Z,101099.69
2023-04-06T14:17:16.112Z,101096.22
2023-04-06T14:19:20.869Z,101086.69
2023-04-06T14:21:22.836Z,101097.03
2023-04-06T14:23:29.005Z,101094.38
2023-04-06T14:25:35.064Z,101093.44
2023-04-06T14:27:37.028Z,101102.84
2023-04-06T14:29:39.247Z,101100.22
2023-04-06T14:31:42.555Z,101106.22
2023-04-06T14:33:44.889Z,101110.53
2023-04-06T14:35:51.524Z,101119.13
2023-04-06T14:37:54.329Z,101113.00
2023-04-06T14:39:56.516Z,101117.28
2023-04-06T14:41:59.198Z,101124.22
2023-04-06T14:44:02.093Z,101143.13
2023-04-06T14:46:09.919Z,101140.47
2023-04-06T14:48:19.404Z,101178.44
2023-04-06T14:50:21.582Z,101174.97
2023-04-06T14:52:23.726Z,101191.16
2023-04-06T14:54:26.121Z,101175.50
2023-04-06T14:56:34.517Z,101181.34
2023-04-06T14:58:36.662Z,101181.13
2023-04-06T15:00:40.209Z,101179.09
2023-04-06T15:02:44.601Z,101165.19
2023-04-06T15:04:47.134Z,101170.25
2023-04-06T15:06:49.068Z,101160.78
2023-04-06T15:08:58.145Z,101156.44
2023-04-06T15:11:02.269Z,101158.25
2023-04-06T15:13:10.582Z,101164.16
2023-04-06T15:15:12.449Z,101163.31
2023-04-06T15:17:17.249Z,101163.28
2023-04-06T15:19:24.452Z,101170.72
2023-04-06T15:21:36.467Z,101167.47
2023-04-06T15:23:38.739Z,101160.56
2023-04-06T15:25:42.567Z,101173.53
2023-04-06T15:27:44.732Z,101172.66
2023-04-06T15:29:47.110Z,101182.31
2023-04-06T15:31:49.210Z,101173.22
2023-04-06T15:34:07.010Z,101165.91
2023-04-06T15:36:29.757Z,101168.72
2023-04-06T15:38:32.104Z,101172.72
2023-04-06T15:40:39.394Z,101170.47
2023-04-06T15:42:43.420Z,101167.22
2023-04-06T15:44:48.527Z,101161.34
2023-04-06T15:46:53.423Z,101161.47
2023-04-06T15:49:28.177Z,101158.91
2023-04-06T15:51:35.292Z,101166.69
2023-04-06T15:53:55.157Z,101175.91
2023-04-06T15:56:04.448Z,101178.47
2023-04-06T15:58:09.374Z,101180.25
2023-04-06T16:00:12.194Z,101186.19
2023-04-06T16:02:14.307Z,101183.47
2023-04-06T16:04:17.936Z,101184.09
2023-04-06T16:06:20.233Z,101182.31
2023-04-06T16:08:27.067Z,101182.19
2023-04-06T16:10:29.216Z,101181.22
2023-04-06T16:12:34.576Z,101182.75
2023-04-06T16:14:39.792Z,101177.44
2023-04-06T16:16:45.481Z,101174.78
2023-04-06T16:18:47.809Z,101178.88
2023-04-06T16:20:50.184Z,101183.13
2023-04-06T16:22:52.281Z,101193.25
2023-04-06T16:24:55.167Z,101191.38
2023-04-06T16:27:01.179Z,101193.84
2023-04-06T16:29:03.566Z,101196.53
2023-04-06T16:31:06.833Z,101203.91
2023-04-06T16:33:09.619Z,101211.66
2023-04-06T16:35:12.272Z,101222.66
2023-04-06T16:37:14.341Z,101227.88
2023-04-06T16:39:17.450Z,101226.13
2023-04-06T16:41:19.715Z,101231.88
2023-04-06T16:43:21.987Z,101244.59
2023-04-06T16:45:27.114Z,101243.88
2023-04-06T16:47:31.811Z,101256.88
2023-04-06T16:49:36.373Z,101267.53
2023-04-06T16:51:41.429Z,101266.78
2023-04-06T16:53:50.388Z,101261.72
2023-04-06T16:56:01.294Z,101269.47
2023-04-06T16:58:12.453Z,101274.69
2023-04-06T17:00:26.563Z,101279.78
2023-04-06T17:02:30.217Z,101289.09
2023-04-06T17:04:34.097Z,101296.06
2023-04-06T17:06:36.495Z,101291.75
2023-04-06T17:08:38.573Z,101282.16
2023-04-06T17:10:41.902Z,101281.06
2023-04-06T17:12:50.103Z,101278.59
2023-04-06T17:14:52.427Z,101263.16
2023-04-06T17:16:57.047Z,101258.69
2023-04-06T17:19:01.675Z,101267.41
2023-04-06T17:21:08.229Z,101266.56
2023-04-06T17:23:10.524Z,101276.91
2023-04-06T17:25:13.019Z,101274.31
2023-04-06T17:27:15.697Z,101281.19
2023-04-06T17:29:18.791Z,101277.03
2023-04-06T17:31:21.746Z,101283.13
2023-04-06T17:33:26.377Z,101292.59
2023-04-06T17:35:35.489Z,101295.19
2023-04-06T17:37:58.667Z,101298.00
2023-04-06T17:40:00.935Z,101301.47
2023-04-06T17:42:06.182Z,101300.78
2023-04-06T17:44:08.226Z,101306.03
2023-04-06T17:46:10.462Z,101310.34
2023-04-06T17:48:21.155Z,101318.03
2023-04-06T17:50:23.823Z,101315.50
2023-04-06T17:52:27.602Z,101325.84
2023-04-06T17:54:29.612Z,101331.97
2023-04-06T17:56:31.684Z,101333.66
2023-04-06T17:58:36.750Z,101332.81
2023-04-06T18:00:39.000Z,101336.31
2023-04-06T18:02:44.199Z,101342.41
2023-04-06T18:04:46.747Z,101337.31
2023-04-06T18:06:48.947Z,101334.69
2023-04-06T18:08:51.558Z,101334.69
2023-04-06T18:10:53.624Z,101338.03
2023-04-06T18:12:56.027Z,101349.31
2023-04-06T18:14:58.056Z,101348.38
2023-04-06T18:17:00.821Z,101341.44
2023-04-06T18:19:04.630Z,101347.28
2023-04-06T18:21:07.209Z,101350.09
2023-04-06T18:23:15.315Z,101351.81
2023-04-06T18:25:17.467Z,101367.25
2023-04-06T18:27:29.929Z,101362.09
2023-04-06T18:29:31.960Z,101368.03
2023-04-06T18:33:41.873Z,101371.38
2023-04-06T18:35:43.838Z,101375.63
2023-04-06T18:37:45.751Z,101377.22
2023-04-06T18:39:47.967Z,101373.72
2023-04-06T18:41:49.933Z,101378.88
2023-04-06T18:43:51.827Z,101382.25
2023-04-06T18:45:53.815Z,101381.44
2023-04-06T18:48:00.535Z,101384.00
2023-04-06T18:50:02.696Z,101391.44
2023-04-06T18:52:06.874Z,101388.84
2023-04-06T18:54:09.276Z,101396.56
2023-04-06T18:56:20.544Z,101398.31
2023-04-06T18:58:26.210Z,101402.53
2023-04-06T19:00:28.053Z,101404.28
2023-04-06T19:02:30.314Z,101406.75
2023-04-06T19:04:32.451Z,101404.81
2023-04-06T19:06:34.390Z,101417.72
2023-04-06T19:08:36.344Z,101415.13
2023-04-06T19:10:38.782Z,101418.50
2023-04-06T19:12:40.591Z,101421.97
2023-04-06T19:14:43.369Z,101416.72
2023-04-06T19:16:52.359Z,101422.06
2023-04-06T19:18:54.594Z,101428.03
2023-04-06T19:20:56.341Z,101433.19
2023-04-06T19:22:58.148Z,101430.56
2023-04-06T19:25:00.035Z,101429.72
2023-04-06T19:27:02.742Z,101435.44
2023-04-06T19:29:04.789Z,101438.94
2023-04-06T19:31:08.694Z,101444.16
2023-04-06T19:33:10.611Z,101450.19
2023-04-06T19:35:12.519Z,101452.69
2023-04-06T19:37:14.319Z,101452.69
2023-04-06T19:39:18.170Z,101456.13
2023-04-06T19:41:20.142Z,101458.59
2023-04-06T19:43:22.040Z,101455.06
2023-04-06T19:45:26.321Z,101463.56
2023-04-06T19:47:28.412Z,101467.03
2023-04-06T19:49:30.452Z,101465.19
2023-04-06T19:51:33.715Z,101471.31
2023-04-06T19:53:36.093Z,101477.25
2023-04-06T19:55:38.180Z,101480.59
2023-04-06T19:57:39.938Z,101482.22
2023-04-06T19:59:42.311Z,101482.22
2023-04-06T20:01:45.559Z,101485.44
2023-04-06T20:03:50.025Z,101494.94
2023-04-06T20:05:51.987Z,101495.66
2023-04-06T20:07:58.703Z,101492.97
2023-04-06T20:10:02.295Z,101495.63
2023-04-06T20:12:04.355Z,101502.53
2023-04-06T20:14:06.143Z,101494.69
2023-04-06T20:16:07.998Z,101497.19
2023-04-06T20:18:09.900Z,101505.56
2023-04-06T20:20:12.074Z,101507.34
2023-04-06T20:22:14.190Z,101505.66
2023-04-06T20:24:16.206Z,101508.22
2023-04-06T20:26:18.163Z,101512.50
2023-04-06T20:28:20.460Z,101507.97
2023-04-06T20:30:22.887Z,101513.06
2023-04-06T20:32:25.092Z,101518.25
2023-04-06T20:34:29.006Z,101519.13
2023-04-06T20:36:32.692Z,101525.84
2023-04-06T20:38:34.883Z,101523.13
2023-04-06T20:40:37.165Z,101532.47
2023-04-06T20:42:39.366Z,101528.28
2023-04-06T20:44:41.431Z,101525.63
2023-04-06T20:46:43.478Z,101528.97
2023-04-06T20:48:45.511Z,101523.72
2023-04-06T20:50:47.318Z,101531.47
2023-04-06T20:52:49.757Z,101539.19
2023-04-06T20:54:52.258Z,101538.16
2023-04-06T20:56:54.117Z,101545.03
2023-04-06T20:58:58.549Z,101539.13
2023-04-06T21:01:00.599Z,101540.66
2023-04-06T21:03:02.747Z,101552.53
2023-04-06T21:05:05.114Z,101546.56
2023-04-06T21:07:07.420Z,101554.25
2023-04-06T21:09:09.183Z,101559.19
2023-04-06T21:11:11.153Z,101554.88
2023-04-06T21:13:12.888Z,101558.31
2023-04-06T21:15:14.706Z,101557.44
2023-04-06T21:17:16.525Z,101567.41
2023-04-06T21:19:18.394Z,101559.72
2023-04-06T21:21:20.280Z,101571.69
2023-04-06T21:23:23.135Z,101561.34
2023-04-06T21:25:25.057Z,101575.97
2023-04-06T21:27:26.872Z,101565.47
2023-04-06T21:29:28.774Z,101569.75
2023-04-06T21:31:30.961Z,101575.69
2023-04-06T21:33:32.803Z,101571.34
2023-04-06T21:35:38.647Z,101572.06
2023-04-06T21:37:40.502Z,101568.78
2023-04-06T21:39:42.212Z,101578.91
2023-04-06T21:41:44.061Z,101570.25
2023-04-06T21:43:45.905Z,101570.13
2023-04-06T21:45:51.448Z,101571.88
2023-04-06T21:47:53.416Z,101574.16
2023-04-06T21:49:55.272Z,101574.97
2023-04-06T21:51:59.580Z,101572.63
2023-04-06T21:54:02.054Z,101578.47
2023-04-06T21:56:04.089Z,101569.66
2023-04-06T21:58:07.636Z,101569.50
2023-04-06T22:00:10.298Z,101573.88
2023-04-06T22:02:12.152Z,101570.25
2023-04-06T22:04:14.341Z,101568.53
2023-04-06T22:06:16.590Z,101569.41
2023-04-06T22:08:32.715Z,101578.72
2023-04-06T22:10:35.804Z,101580.22
2023-04-06T22:12:37.863Z,101580.53
2023-04-06T22:14:39.617Z,101588.03
2023-04-06T22:16:41.557Z,101587.13
2023-04-06T22:18:43.424Z,101586.25
2023-04-06T22:20:45.913Z,101585.16
2023-04-06T22:22:47.786Z,101586.78
2023-04-06T22:24:49.592Z,101587.50
2023-04-06T22:26:51.586Z,101582.34
2023-04-06T22:28:53.511Z,101590.72
2023-04-06T22:30:55.344Z,101598.44
2023-04-06T22:32:57.304Z,101596.59
2023-04-06T22:34:59.056Z,101600.84
2023-04-06T22:37:01.149Z,101593.19
2023-04-06T22:39:02.971Z,101597.41
2023-04-06T22:41:06.589Z,101599.66
2023-04-06T22:43:09.094Z,101595.53
2023-04-06T22:45:11.516Z,101597.03
2023-04-06T22:47:13.403Z,101592.81
2023-04-06T22:49:15.659Z,101595.19
2023-04-06T22:51:17.412Z,101592.56
2023-04-06T22:53:19.316Z,101593.41
2023-04-06T22:55:21.384Z,101595.88
2023-04-06T22:57:23.129Z,101592.53
2023-04-06T22:59:25.021Z,101594.94
2023-04-06T23:01:27.114Z,101590.53
2023-04-06T23:03:28.970Z,101590.50
2023-04-06T23:05:30.903Z,101582.63
2023-04-06T23:07:32.933Z,101583.50
2023-04-06T23:09:34.712Z,101585.16
2023-04-06T23:11:36.429Z,101585.16
2023-04-06T23:13:38.334Z,101591.91
2023-04-06T23:15:40.083Z,101588.41
2023-04-06T23:17:41.959Z,101588.31
2023-04-06T23:19:43.720Z,101589.94
2023-04-06T23:21:45.504Z,101595.19
2023-04-06T23:23:47.295Z,101593.44
2023-04-06T23:25:49.099Z,101592.66
2023-04-06T23:27:52.407Z,101597.00
2023-04-06T23:29:54.385Z,101595.97
2023-04-06T23:31:56.183Z,101598.28